Time;durP1;ratioP1;P1;durP2;ratioP2;P2;SDS_P1;SDS_P2;PMS_P1;PMS_P2;Temp;Humidity;BMP_temperature;BMP_pressure;BME280_temperature;BME280_humidity;BME280_pressure;Samples;Min_cycle;Max_cycle;Signal;HPM_P1;HPM_P2
2021/08/06 00:01:58;;;;;;;;;;;;;;;10.22;79.91;101623.97;5133855;27;20382;-77
2021/08/06 00:04:24;;;;;;;;;;;;;;;10.25;80.40;101628.22;5134037;27;19928;-78
2021/08/06 00:06:52;;;;;;;;;;;;;;;10.37;78.75;101630.34;5133841;27;20389;-77
2021/08/06 00:09:19;;;;;;;;;;;;;;;10.39;78.75;101627.69;5133971;27;20377;-78
2021/08/06 00:11:46;;;;;;;;;;;;;;;10.26;79.68;101627.28;5134362;27;19931;-78
2021/08/06 00:14:12;;;;;;;;;;;;;;;10.29;79.26;101627.19;5133649;27;20389;-78
2021/08/06 00:16:39;;;;;;;;;;;;;;;10.27;79.28;101628.13;5134226;27;19923;-77
2021/08/06 00:19:05;;;;;;;;;;;;;;;10.37;79.00;101630.34;5133785;27;19924;-78
2021/08/06 00:21:32;;;;;;;;;;;;;;;10.17;79.87;101633.72;5134155;27;19935;-78
2021/08/06 00:24:00;;;;;;;;;;;;;;;10.18;79.41;101635.41;5133485;27;20375;-77
2021/08/06 00:26:26;;;;;;;;;;;;;;;10.16;79.66;101637.22;5133780;27;19924;-77
2021/08/06 00:28:53;;;;;;;;;;;;;;;10.10;80.21;101640.06;5133841;27;19923;-78
2021/08/06 00:31:20;;;;;;;;;;;;;;;10.08;80.45;101638.44;5134079;27;19924;-78
2021/08/06 00:33:46;;;;;;;;;;;;;;;10.01;81.15;101633.44;5133646;27;19923;-77
2021/08/06 00:36:13;;;;;;;;;;;;;;;9.84;82.34;101642.78;5133592;27;19945;-78
2021/08/06 00:38:39;;;;;;;;;;;;;;;9.65;82.86;101640.03;5133598;27;19924;-78
2021/08/06 00:41:07;;;;;;;;;;;;;;;9.76;82.32;101638.75;5133386;27;19923;-78
2021/08/06 00:43:34;;;;;;;;;;;;;;;9.73;81.98;101636.25;5133393;27;20490;-78
2021/08/06 00:46:02;;;;;;;;;;;;;;;9.75;81.98;101637.03;5133301;27;20392;-77
2021/08/06 00:48:29;;;;;;;;;;;;;;;9.81;81.88;101639.44;5133513;27;20338;-78
2021/08/06 00:50:56;;;;;;;;;;;;;;;9.77;81.55;101627.44;5133160;27;19928;-78
2021/08/06 00:53:23;;;;;;;;;;;;;;;9.71;82.20;101637.19;5133779;28;19931;-78
2021/08/06 00:55:50;;;;;;;;;;;;;;;9.74;81.56;101637.94;5133738;28;19924;-78
2021/08/06 00:58:18;;;;;;;;;;;;;;;9.92;81.18;101640.78;5133319;28;19924;-78
2021/08/06 01:00:47;;;;;;;;;;;;;;;10.00;80.92;101638.72;5133369;28;19927;-78
2021/08/06 01:03:19;;;;;;;;;;;;;;;9.86;81.65;101635.78;5132852;28;20392;-78
2021/08/06 01:05:51;;;;;;;;;;;;;;;9.79;81.86;101643.81;5133616;28;19923;-78
2021/08/06 01:08:20;;;;;;;;;;;;;;;9.69;82.25;101641.63;5133397;28;20026;-78
2021/08/06 01:10:48;;;;;;;;;;;;;;;9.68;82.42;101640.75;5134780;27;19923;-77
2021/08/06 01:13:17;;;;;;;;;;;;;;;9.73;82.79;101643.19;5137231;27;20304;-77
2021/08/06 01:15:49;;;;;;;;;;;;;;;9.82;82.30;101650.66;5137753;27;19927;-78
2021/08/06 01:18:17;;;;;;;;;;;;;;;10.03;81.33;101646.41;5137473;27;19923;-77
2021/08/06 01:20:46;;;;;;;;;;;;;;;10.02;81.82;101652.50;5137712;27;19931;-78
2021/08/06 01:23:15;;;;;;;;;;;;;;;10.02;81.45;101644.72;5136993;27;19924;-77
2021/08/06 01:25:48;;;;;;;;;;;;;;;9.99;81.86;101648.28;5137519;27;19931;-77
2021/08/06 01:28:16;;;;;;;;;;;;;;;10.11;81.61;101656.50;5137527;27;19927;-77
2021/08/06 01:30:43;;;;;;;;;;;;;;;10.00;81.95;101651.72;5137517;27;19931;-77
2021/08/06 01:33:10;;;;;;;;;;;;;;;10.00;81.96;101649.13;5137242;27;19929;-77
2021/08/06 01:35:37;;;;;;;;;;;;;;;9.91;82.62;101650.28;5137104;27;20435;-77
2021/08/06 01:38:03;;;;;;;;;;;;;;;10.01;82.01;101654.25;5136677;27;20286;-78
2021/08/06 01:40:33;;;;;;;;;;;;;;;9.99;82.28;101647.41;5137263;27;19924;-77
2021/08/06 01:43:04;;;;;;;;;;;;;;;9.72;83.39;101650.16;5136649;27;19924;-78
2021/08/06 01:45:35;;;;;;;;;;;;;;;9.76;83.14;101649.16;5137183;27;19930;-77
2021/08/06 01:48:01;;;;;;;;;;;;;;;9.71;83.20;101652.78;5136660;27;19930;-78
2021/08/06 01:50:30;;;;;;;;;;;;;;;9.68;83.69;101655.50;5137142;27;19924;-78
2021/08/06 01:53:00;;;;;;;;;;;;;;;9.68;83.53;101658.94;5136463;27;19924;-77
2021/08/06 01:55:29;;;;;;;;;;;;;;;9.77;82.74;101660.38;5137236;27;19923;-78
2021/08/06 01:57:57;;;;;;;;;;;;;;;9.59;83.78;101651.50;5136763;27;19927;-77
2021/08/06 02:00:25;;;;;;;;;;;;;;;9.54;83.90;101661.22;5136961;27;19923;-78
2021/08/06 02:02:52;;;;;;;;;;;;;;;9.53;83.72;101662.97;5136526;27;19930;-78
2021/08/06 02:05:18;;;;;;;;;;;;;;;9.49;83.92;101666.56;5135339;27;19923;-77
2021/08/06 02:07:45;;;;;;;;;;;;;;;9.58;82.99;101655.88;5135200;28;20336;-77
2021/08/06 02:10:14;;;;;;;;;;;;;;;9.63;82.77;101652.22;5135204;28;19960;-78
2021/08/06 02:12:40;;;;;;;;;;;;;;;9.63;82.79;101660.03;5135208;28;19924;-77
2021/08/06 02:15:07;;;;;;;;;;;;;;;9.53;83.64;101659.50;5135208;28;19923;-78
2021/08/06 02:17:36;;;;;;;;;;;;;;;9.45;83.64;101670.19;5135372;28;20413;-78
2021/08/06 02:20:04;;;;;;;;;;;;;;;9.48;83.40;101664.03;5134773;28;19924;-78
2021/08/06 02:22:31;;;;;;;;;;;;;;;9.36;83.88;101663.56;5134573;27;20494;-78
2021/08/06 02:24:57;;;;;;;;;;;;;;;9.35;83.96;101668.81;5135009;28;19974;-78
2021/08/06 02:27:24;;;;;;;;;;;;;;;9.44;83.50;101671.09;5134984;28;19930;-77
2021/08/06 02:29:52;;;;;;;;;;;;;;;9.31;84.12;101675.88;5134960;28;19924;-77
2021/08/06 02:32:19;;;;;;;;;;;;;;;9.23;84.34;101674.44;5134791;28;19930;-78
2021/08/06 02:34:47;;;;;;;;;;;;;;;9.17;84.23;101675.53;5135175;28;19924;-78
2021/08/06 02:37:13;;;;;;;;;;;;;;;9.23;84.50;101674.44;5134418;28;20395;-78
2021/08/06 02:39:40;;;;;;;;;;;;;;;9.27;83.56;101676.88;5135087;28;19923;-78
2021/08/06 02:42:06;;;;;;;;;;;;;;;9.33;83.55;101674.06;5134382;28;19939;-77
2021/08/06 02:44:34;;;;;;;;;;;;;;;9.41;83.06;101673.81;5134927;28;19946;-78
2021/08/06 02:47:01;;;;;;;;;;;;;;;9.49;82.75;101674.38;5134404;28;20427;-77
2021/08/06 02:49:31;;;;;;;;;;;;;;;9.51;82.73;101679.53;5134802;28;19923;-77
2021/08/06 02:51:59;;;;;;;;;;;;;;;9.53;82.72;101678.56;5134361;28;19923;-77
2021/08/06 02:54:26;;;;;;;;;;;;;;;9.51;83.00;101679.53;5134754;28;19931;-77
2021/08/06 02:56:53;;;;;;;;;;;;;;;9.57;82.64;101679.28;5134218;28;19923;-78
2021/08/06 02:59:19;;;;;;;;;;;;;;;9.58;82.85;101673.19;5134770;28;19924;-77
2021/08/06 03:01:46;;;;;;;;;;;;;;;9.78;81.41;101665.50;5134399;28;19923;-77
2021/08/06 03:04:12;;;;;;;;;;;;;;;9.57;82.60;101677.53;5059844;27;2085422;-78
2021/08/06 03:06:39;;;;;;;;;;;;;;;9.63;82.73;101668.66;5135289;27;20385;-77
2021/08/06 03:09:07;;;;;;;;;;;;;;;9.90;81.62;101676.38;5135064;27;19923;-77
2021/08/06 03:11:34;;;;;;;;;;;;;;;10.08;80.42;101674.81;5135208;27;19930;-78
2021/08/06 03:14:00;;;;;;;;;;;;;;;10.18;80.26;101668.38;5134998;27;19967;-78
2021/08/06 03:16:27;;;;;;;;;;;;;;;10.33;79.31;101673.00;5135173;27;20389;-77
2021/08/06 03:18:53;;;;;;;;;;;;;;;10.33;79.38;101673.00;5134919;27;19924;-77
2021/08/06 03:21:20;;;;;;;;;;;;;;;10.26;79.97;101666.31;5135379;27;19923;-77
2021/08/06 03:23:47;;;;;;;;;;;;;;;10.34;79.14;101666.88;5134942;27;19934;-77
2021/08/06 03:26:15;;;;;;;;;;;;;;;10.40;79.42;101669.25;5134951;27;19923;-77
2021/08/06 03:28:42;;;;;;;;;;;;;;;10.26;80.05;101668.91;5135167;27;19924;-77
2021/08/06 03:31:08;;;;;;;;;;;;;;;10.42;79.55;101680.44;5134612;27;20305;-77
2021/08/06 03:33:35;;;;;;;;;;;;;;;10.36;80.73;101679.84;5134108;27;19930;-77
2021/08/06 03:36:01;;;;;;;;;;;;;;;10.44;80.01;101678.63;5134397;27;19923;-78
2021/08/06 03:38:28;;;;;;;;;;;;;;;10.53;79.54;101677.38;5134634;27;20396;-78
2021/08/06 03:40:54;;;;;;;;;;;;;;;10.54;79.98;101684.31;5134423;27;19930;-77
2021/08/06 03:43:22;;;;;;;;;;;;;;;10.62;79.64;101684.00;5134561;27;20373;-77
2021/08/06 03:45:49;;;;;;;;;;;;;;;10.63;79.27;101675.28;5134463;27;20263;-77
2021/08/06 03:48:16;;;;;;;;;;;;;;;10.49;79.39;101673.22;5134486;27;20025;-77
2021/08/06 03:50:43;;;;;;;;;;;;;;;10.58;78.92;101675.44;5134400;27;20386;-77
2021/08/06 03:53:09;;;;;;;;;;;;;;;10.58;79.71;101680.66;5134166;27;20369;-77
2021/08/06 03:55:36;;;;;;;;;;;;;;;10.62;78.92;101684.00;5134224;27;19923;-78
2021/08/06 03:58:03;;;;;;;;;;;;;;;10.64;79.83;101684.78;5134297;27;19946;-78
2021/08/06 04:00:32;;;;;;;;;;;;;;;10.62;79.82;101682.25;5134589;27;19931;-77
2021/08/06 04:02:59;;;;;;;;;;;;;;;10.68;79.99;101692.38;5134187;27;19923;-78
2021/08/06 04:05:26;;;;;;;;;;;;;;;10.56;80.82;101687.69;5134038;27;19924;-78
2021/08/06 04:07:52;;;;;;;;;;;;;;;10.82;79.59;101694.44;5133929;27;19924;-77
2021/08/06 04:10:19;;;;;;;;;;;;;;;10.84;80.68;101694.38;5134460;27;19924;-77
2021/08/06 04:12:46;;;;;;;;;;;;;;;10.89;80.28;101689.81;5134007;27;19923;-71
2021/08/06 04:15:13;;;;;;;;;;;;;;;11.07;78.82;101693.41;5133663;27;19968;-77
2021/08/06 04:17:41;;;;;;;;;;;;;;;11.18;79.01;101690.38;5134215;27;19931;-78
2021/08/06 04:20:08;;;;;;;;;;;;;;;11.23;78.53;101691.88;5133731;27;20262;-80
2021/08/06 04:22:35;;;;;;;;;;;;;;;11.37;78.28;101693.88;5133754;27;19930;-77
2021/08/06 04:25:02;;;;;;;;;;;;;;;11.47;78.30;101695.16;5133867;27;19930;-77
2021/08/06 04:27:28;;;;;;;;;;;;;;;11.38;79.47;101694.72;5134125;27;19923;-78
2021/08/06 04:29:55;;;;;;;;;;;;;;;11.45;77.76;101686.56;5133492;27;19924;-77
2021/08/06 04:32:22;;;;;;;;;;;;;;;11.67;77.63;101691.69;5133704;27;20312;-77
2021/08/06 04:34:50;;;;;;;;;;;;;;;11.83;77.22;101689.22;5133677;27;19927;-77
2021/08/06 04:37:16;;;;;;;;;;;;;;;11.83;77.66;101694.44;5133678;27;19924;-77
2021/08/06 04:39:43;;;;;;;;;;;;;;;11.88;76.61;101694.28;5133512;27;20297;-77
2021/08/06 04:42:09;;;;;;;;;;;;;;;11.99;76.35;101685.03;5133311;27;19923;-77
2021/08/06 04:44:38;;;;;;;;;;;;;;;12.13;75.34;101700.06;5132940;27;19923;-77
2021/08/06 04:47:05;;;;;;;;;;;;;;;12.08;76.63;101698.56;5132999;27;19931;-77
2021/08/06 04:49:32;;;;;;;;;;;;;;;12.27;74.54;101698.56;5133241;27;20289;-77
2021/08/06 04:52:00;;;;;;;;;;;;;;;12.40;74.26;101692.66;5133133;27;19934;-78
2021/08/06 04:54:26;;;;;;;;;;;;;;;12.48;73.80;101691.47;5133159;27;19930;-79
2021/08/06 04:56:53;;;;;;;;;;;;;;;12.50;73.65;101690.47;5133688;28;19923;-76
2021/08/06 04:59:20;;;;;;;;;;;;;;;12.68;73.67;101698.34;5133766;28;19931;-77
2021/08/06 05:01:46;;;;;;;;;;;;;;;12.78;72.93;101696.97;5133673;28;19930;-76
2021/08/06 05:04:13;;;;;;;;;;;;;;;12.91;72.11;101695.44;5132693;28;19923;-76
2021/08/06 05:06:40;;;;;;;;;;;;;;;12.97;72.21;101686.44;5133305;28;20383;-76
2021/08/06 05:09:08;;;;;;;;;;;;;;;13.00;73.46;101696.75;5133115;28;19924;-76
2021/08/06 05:11:35;;;;;;;;;;;;;;;13.23;70.53;101690.34;5133346;28;20412;-76
2021/08/06 05:14:01;;;;;;;;;;;;;;;13.34;70.89;101685.47;5132971;28;20403;-76
2021/08/06 05:16:28;;;;;;;;;;;;;;;13.35;70.55;101687.13;5133580;28;19934;-76
2021/08/06 05:18:55;;;;;;;;;;;;;;;13.37;70.87;101687.06;5133255;28;19924;-76
2021/08/06 05:21:21;;;;;;;;;;;;;;;13.40;70.03;101690.34;5133230;28;19924;-76
2021/08/06 05:23:48;;;;;;;;;;;;;;;13.36;70.42;101687.97;5133108;28;20428;-76
2021/08/06 05:26:16;;;;;;;;;;;;;;;13.36;71.19;101693.19;5133138;28;19924;-76
2021/08/06 05:28:42;;;;;;;;;;;;;;;13.50;71.06;101693.34;5134312;28;20282;-76
2021/08/06 05:31:09;;;;;;;;;;;;;;;13.19;72.96;101689.66;5132875;28;19923;-78
2021/08/06 05:33:36;;;;;;;;;;;;;;;13.27;74.62;101695.38;5133398;28;19923;-78
2021/08/06 05:36:03;;;;;;;;;;;;;;;13.54;71.47;101699.25;5132884;28;19931;-78
2021/08/06 05:38:29;;;;;;;;;;;;;;;13.75;69.47;101699.91;5133025;28;20377;-78
2021/08/06 05:40:56;;;;;;;;;;;;;;;13.91;68.96;101690.28;5132742;28;19923;-78
2021/08/06 05:43:24;;;;;;;;;;;;;;;14.06;69.28;101696.47;5133303;28;19924;-78
2021/08/06 05:45:50;;;;;;;;;;;;;;;14.29;68.46;101697.81;5133118;28;19924;-78
2021/08/06 05:48:18;;;;;;;;;;;;;;;14.29;68.06;101697.81;5132851;28;20374;-78
2021/08/06 05:50:45;;;;;;;;;;;;;;;14.42;68.17;101705.84;5132906;28;19923;-76
2021/08/06 05:53:11;;;;;;;;;;;;;;;14.44;69.67;101707.44;5132991;28;19927;-77
2021/08/06 05:55:38;;;;;;;;;;;;;;;14.60;68.37;101704.81;5132724;27;19930;-77
2021/08/06 05:58:04;;;;;;;;;;;;;;;14.54;68.45;101703.41;5137048;27;19930;-77
2021/08/06 06:00:33;;;;;;;;;;;;;;;14.68;68.67;101705.22;5136660;27;20383;-77
2021/08/06 06:02:59;;;;;;;;;;;;;;;14.76;69.00;101699.56;5136255;27;19924;-77
2021/08/06 06:05:26;;;;;;;;;;;;;;;14.89;66.81;101703.13;5136400;27;20378;-77
2021/08/06 06:07:52;;;;;;;;;;;;;;;15.11;66.09;101709.78;5136542;27;19950;-77
2021/08/06 06:10:19;;;;;;;;;;;;;;;15.17;67.08;101712.84;5136657;27;19927;-78
2021/08/06 06:12:46;;;;;;;;;;;;;;;15.18;66.32;101705.81;5137594;27;19924;-77
2021/08/06 06:15:13;;;;;;;;;;;;;;;15.14;66.47;101706.97;5136409;27;19924;-77
2021/08/06 06:17:41;;;;;;;;;;;;;;;15.26;67.40;101706.25;5136328;27;20381;-77
2021/08/06 06:20:08;;;;;;;;;;;;;;;15.27;66.38;101707.91;5136324;27;19924;-77
2021/08/06 06:22:34;;;;;;;;;;;;;;;15.43;65.18;101707.84;5136386;27;19924;-77
2021/08/06 06:25:01;;;;;;;;;;;;;;;15.44;65.38;101715.63;5136085;27;19924;-78
2021/08/06 06:27:28;;;;;;;;;;;;;;;15.46;65.40;101720.75;5136460;27;19924;-78
2021/08/06 06:29:54;;;;;;;;;;;;;;;15.54;64.34;101721.16;5136141;27;19923;-77
2021/08/06 06:32:21;;;;;;;;;;;;;;;15.58;63.12;101721.81;5136057;27;19923;-77
2021/08/06 06:34:49;;;;;;;;;;;;;;;15.70;64.35;101731.59;5135943;27;20387;-78
2021/08/06 06:37:16;;;;;;;;;;;;;;;15.83;64.49;101732.53;5135610;27;20289;-78
2021/08/06 06:39:43;;;;;;;;;;;;;;;15.97;64.48;101739.53;5136127;27;19930;-78
2021/08/06 06:42:09;;;;;;;;;;;;;;;16.09;63.62;101743.19;5135607;27;20385;-78
2021/08/06 06:44:36;;;;;;;;;;;;;;;16.23;62.81;101737.06;5135614;27;20377;-77
2021/08/06 06:47:02;;;;;;;;;;;;;;;16.23;62.94;101743.13;5135723;27;19924;-77
2021/08/06 06:49:29;;;;;;;;;;;;;;;16.41;63.73;101745.53;5135985;27;19928;-77
2021/08/06 06:51:57;;;;;;;;;;;;;;;16.53;61.32;101744.75;5135429;27;19931;-77
2021/08/06 06:54:24;;;;;;;;;;;;;;;16.68;59.55;101748.19;5135463;27;19924;-77
2021/08/06 06:56:50;;;;;;;;;;;;;;;16.57;61.79;101745.41;5135824;27;19924;-77
2021/08/06 06:59:17;;;;;;;;;;;;;;;16.81;59.72;101749.09;5135495;27;19924;-77
2021/08/06 07:01:43;;;;;;;;;;;;;;;17.10;59.43;101755.06;5135818;27;20280;-77
2021/08/06 07:04:10;;;;;;;;;;;;;;;17.26;58.12;101760.13;5135231;27;19924;-77
2021/08/06 07:06:37;;;;;;;;;;;;;;;17.37;60.44;101759.41;5135172;27;20380;-78
2021/08/06 07:09:07;;;;;;;;;;;;;;;17.55;58.49;101763.44;5134409;27;19923;-77
2021/08/06 07:11:34;;;;;;;;;;;;;;;17.74;57.40;101759.53;5135232;27;19931;-77
2021/08/06 07:14:01;;;;;;;;;;;;;;;17.89;55.62;101765.56;5135167;27;20293;-78
2021/08/06 07:16:27;;;;;;;;;;;;;;;18.01;56.81;101762.06;5135382;27;19930;-77
2021/08/06 07:18:54;;;;;;;;;;;;;;;18.26;56.67;101772.53;5135105;27;19924;-78
2021/08/06 07:21:23;;;;;;;;;;;;;;;19.06;55.04;101757.97;5135424;27;19923;-77
2021/08/06 07:23:51;;;;;;;;;;;;;;;20.53;52.07;101766.81;5135330;27;20010;-77
2021/08/06 07:26:19;;;;;;;;;;;;;;;21.71;47.10;101764.91;5135407;27;19923;-77
2021/08/06 07:28:45;;;;;;;;;;;;;;;22.30;45.99;101760.63;5134911;27;19976;-77
2021/08/06 07:31:12;;;;;;;;;;;;;;;22.72;42.44;101763.91;5135034;27;19923;-78
2021/08/06 07:33:39;;;;;;;;;;;;;;;22.77;43.56;101758.19;5134648;27;20424;-78
2021/08/06 07:36:05;;;;;;;;;;;;;;;23.40;42.88;101766.53;5135135;27;19930;-77
2021/08/06 07:38:32;;;;;;;;;;;;;;;23.70;40.32;101769.91;5134794;27;19930;-77
2021/08/06 07:40:58;;;;;;;;;;;;;;;23.99;39.74;101766.31;5134761;27;19924;-78
2021/08/06 07:43:26;;;;;;;;;;;;;;;24.09;40.87;101759.13;5134578;27;19923;-78
2021/08/06 07:45:53;;;;;;;;;;;;;;;24.78;38.96;101758.53;5134558;27;19924;-78
2021/08/06 07:48:19;;;;;;;;;;;;;;;25.41;39.82;101762.84;5134810;27;19927;-78
2021/08/06 07:50:46;;;;;;;;;;;;;;;25.78;38.22;101760.88;5134554;27;19927;-78
2021/08/06 07:53:13;;;;;;;;;;;;;;;25.62;37.21;101766.97;5134334;27;19923;-78
2021/08/06 07:55:39;;;;;;;;;;;;;;;25.59;36.46;101762.78;5134737;27;19927;-78
2021/08/06 07:58:06;;;;;;;;;;;;;;;25.84;34.30;101763.78;5134132;27;19924;-79
2021/08/06 08:00:34;;;;;;;;;;;;;;;25.66;33.99;101762.97;5134602;27;19938;-77
2021/08/06 08:03:01;;;;;;;;;;;;;;;25.64;34.41;101762.31;5134171;27;19923;-78
2021/08/06 08:05:27;;;;;;;;;;;;;;;25.65;35.48;101761.31;5134070;27;20289;-78
2021/08/06 08:07:54;;;;;;;;;;;;;;;26.64;34.81;101765.16;5133945;27;19930;-78
2021/08/06 08:10:20;;;;;;;;;;;;;;;26.50;31.85;101769.28;5134118;27;19924;-78
2021/08/06 08:12:47;;;;;;;;;;;;;;;25.42;35.16;101761.03;5134069;27;19924;-78
2021/08/06 08:15:14;;;;;;;;;;;;;;;26.08;35.02;101772.03;5133835;27;19923;-79
2021/08/06 08:17:42;;;;;;;;;;;;;;;25.68;35.97;101776.97;5133851;27;19924;-79
2021/08/06 08:20:09;;;;;;;;;;;;;;;25.18;35.07;101772.38;5133607;27;19938;-78
2021/08/06 08:22:36;;;;;;;;;;;;;;;24.79;34.41;101764.72;5133971;27;20377;-78
2021/08/06 08:25:03;;;;;;;;;;;;;;;25.02;33.64;101770.34;5133591;27;20377;-78
2021/08/06 08:27:29;;;;;;;;;;;;;;;25.07;34.51;101773.41;5133805;27;20318;-78
2021/08/06 08:29:56;;;;;;;;;;;;;;;25.30;34.34;101764.94;5133574;27;19923;-78
2021/08/06 08:32:23;;;;;;;;;;;;;;;26.17;32.55;101776.38;5134025;27;19930;-77
2021/08/06 08:34:51;;;;;;;;;;;;;;;26.26;33.79;101780.75;5133992;27;20374;-78
2021/08/06 08:37:17;;;;;;;;;;;;;;;26.84;29.77;101763.81;5133974;27;19923;-78
2021/08/06 08:39:44;;;;;;;;;;;;;;;27.23;30.37;101759.66;5133783;27;19923;-78
2021/08/06 08:42:10;;;;;;;;;;;;;;;27.43;31.94;101763.63;5133561;27;20401;-78
2021/08/06 08:44:38;;;;;;;;;;;;;;;28.07;30.80;101762.75;5133791;27;19923;-78
2021/08/06 08:47:05;;;;;;;;;;;;;;;27.74;28.39;101757.50;5133376;27;19923;-78
2021/08/06 08:49:33;;;;;;;;;;;;;;;27.26;29.67;101754.81;5133749;27;19923;-78
2021/08/06 08:52:01;;;;;;;;;;;;;;;28.49;26.97;101756.16;5133608;27;19927;-78
2021/08/06 08:54:28;;;;;;;;;;;;;;;26.90;29.03;101757.00;5134018;27;19924;-78
2021/08/06 08:56:55;;;;;;;;;;;;;;;26.49;30.44;101759.63;5133457;27;20369;-78
2021/08/06 08:59:21;;;;;;;;;;;;;;;27.02;28.06;101754.81;5133602;28;19930;-77
2021/08/06 09:01:48;;;;;;;;;;;;;;;27.73;28.18;101747.84;5133788;28;19946;-78
2021/08/06 09:04:22;;;;;;;;;;;;;;;27.94;26.83;101741.91;5133027;28;19923;-78
2021/08/06 09:06:49;;;;;;;;;;;;;;;28.31;28.37;101749.25;5133521;28;19928;-77
2021/08/06 09:09:19;;;;;;;;;;;;;;;28.49;26.13;101748.13;5133196;28;20263;-78
2021/08/06 09:11:46;;;;;;;;;;;;;;;27.82;25.50;101745.97;5133551;28;19924;-78
2021/08/06 09:14:16;;;;;;;;;;;;;;;28.07;25.83;101755.56;5133426;28;19938;-78
2021/08/06 09:16:53;;;;;;;;;;;;;;;29.60;27.02;101754.66;5133352;28;19924;-78
2021/08/06 09:19:20;;;;;;;;;;;;;;;29.25;24.72;101757.84;5133631;28;19950;-77
2021/08/06 09:21:47;;;;;;;;;;;;;;;28.38;26.75;101760.06;5133286;28;19923;-77
2021/08/06 09:24:13;;;;;;;;;;;;;;;28.47;27.24;101753.66;5132908;28;19923;-77
2021/08/06 09:26:43;;;;;;;;;;;;;;;29.25;23.84;101754.34;5133088;28;19927;-77
2021/08/06 09:29:10;;;;;;;;;;;;;;;29.47;23.05;101748.09;5133213;28;20377;-77
2021/08/06 09:31:39;;;;;;;;;;;;;;;30.61;23.62;101750.25;5134534;27;19924;-78
2021/08/06 09:34:17;;;;;;;;;;;;;;;30.75;22.74;101751.19;5137284;27;20293;-78
2021/08/06 09:36:54;;;;;;;;;;;;;;;30.83;21.88;101755.63;5137156;27;19968;-78
2021/08/06 09:39:21;;;;;;;;;;;;;;;31.09;23.17;101753.16;5137357;27;19961;-78
2021/08/06 09:41:49;;;;;;;;;;;;;;;31.07;23.48;101754.38;5136901;27;20267;-78
2021/08/06 09:44:16;;;;;;;;;;;;;;;30.76;23.40;101751.00;5137056;27;19923;-77
2021/08/06 09:46:44;;;;;;;;;;;;;;;32.15;21.91;101752.06;5137219;27;19924;-78
2021/08/06 09:49:10;;;;;;;;;;;;;;;33.80;22.48;101744.91;5136990;27;19927;-79
2021/08/06 09:51:37;;;;;;;;;;;;;;;29.53;26.41;101735.78;5136746;27;19930;-78
2021/08/06 09:54:17;;;;;;;;;;;;;;;30.25;25.40;101744.94;5136588;27;20292;-78
2021/08/06 09:56:44;;;;;;;;;;;;;;;30.00;25.34;101745.25;5136797;27;19930;-78
2021/08/06 09:59:12;;;;;;;;;;;;;;;29.62;25.32;101744.53;5136703;27;19928;-78
2021/08/06 10:01:38;;;;;;;;;;;;;;;28.22;25.28;101744.94;5137151;27;19924;-78
2021/08/06 10:04:13;;;;;;;;;;;;;;;29.83;23.97;101738.47;5136274;27;19930;-78
2021/08/06 10:06:40;;;;;;;;;;;;;;;30.40;23.47;101743.03;5136490;27;20339;-77
2021/08/06 10:09:06;;;;;;;;;;;;;;;31.79;24.49;101745.06;5136168;27;19932;-78
2021/08/06 10:11:33;;;;;;;;;;;;;;;31.40;23.09;101742.00;5136818;27;19931;-78
2021/08/06 10:14:00;;;;;;;;;;;;;;;30.85;23.99;101738.28;5136005;27;19933;-78
2021/08/06 10:16:28;;;;;;;;;;;;;;;27.62;26.01;101735.69;5136655;27;19923;-78
2021/08/06 10:18:55;;;;;;;;;;;;;;;27.00;29.77;101736.31;5136064;27;20300;-77
2021/08/06 10:21:22;;;;;;;;;;;;;;;27.54;30.20;101733.00;5136261;27;19949;-77
2021/08/06 10:23:49;;;;;;;;;;;;;;;29.95;24.98;101727.06;5136398;27;19923;-78
2021/08/06 10:26:16;;;;;;;;;;;;;;;31.52;23.04;101719.91;5136061;27;19923;-78
2021/08/06 10:28:43;;;;;;;;;;;;;;;32.12;21.50;101718.28;5136431;27;19924;-75
2021/08/06 10:31:19;;;;;;;;;;;;;;;32.40;21.75;101722.69;5135810;27;20289;-79
2021/08/06 10:34:03;;;;;;;;;;;;;;;30.23;22.50;101720.13;5135980;27;19931;-76
2021/08/06 10:36:40;;;;;;;;;;;;;;;30.68;22.20;101729.66;5136321;27;19923;-76
2021/08/06 10:39:34;;;;;;;;;;;;;;;28.58;26.20;101714.94;5135868;27;19930;-75
2021/08/06 10:42:03;;;;;;;;;;;;;;;28.29;26.42;101724.50;5135209;27;19932;-79
2021/08/06 10:44:48;;;;;;;;;;;;;;;26.14;29.35;101718.88;5135768;27;19931;-79
2021/08/06 10:47:15;;;;;;;;;;;;;;;25.60;32.39;101721.81;5135751;27;19931;-78
2021/08/06 10:49:43;;;;;;;;;;;;;;;27.34;27.27;101709.38;5136476;27;19927;-78
2021/08/06 10:52:14;;;;;;;;;;;;;;;30.65;22.81;101708.56;5135290;27;20004;-79
2021/08/06 10:54:41;;;;;;;;;;;;;;;32.99;20.58;101705.69;5135663;27;19930;-79
2021/08/06 10:57:21;;;;;;;;;;;;;;;33.66;21.09;101710.94;5135642;27;19924;-79
2021/08/06 10:59:48;;;;;;;;;;;;;;;30.25;21.96;101707.38;5135798;27;19923;-79
2021/08/06 11:02:33;;;;;;;;;;;;;;;30.46;22.93;101711.91;5135276;27;20022;-79
2021/08/06 11:05:01;;;;;;;;;;;;;;;32.73;21.54;101701.19;5135277;27;19923;-79
2021/08/06 11:07:32;;;;;;;;;;;;;;;33.66;20.43;101703.66;5135431;27;19924;-78
2021/08/06 11:09:59;;;;;;;;;;;;;;;32.68;21.29;101699.09;5135426;27;19924;-78
2021/08/06 11:12:30;;;;;;;;;;;;;;;31.61;19.54;101697.22;5135310;27;19930;-78
2021/08/06 11:14:59;;;;;;;;;;;;;;;33.20;19.45;101693.84;5135031;27;19923;-79
2021/08/06 11:17:26;;;;;;;;;;;;;;;33.53;19.53;101691.03;5135412;27;19931;-79
2021/08/06 11:19:53;;;;;;;;;;;;;;;33.86;19.46;101690.06;5135263;27;19924;-76
2021/08/06 11:22:26;;;;;;;;;;;;;;;32.59;18.64;101678.78;5135089;27;20378;-76
2021/08/06 11:24:54;;;;;;;;;;;;;;;30.99;21.77;101683.63;5135393;27;19923;-76
2021/08/06 11:27:22;;;;;;;;;;;;;;;32.55;20.29;101682.94;5135236;27;19931;-76
2021/08/06 11:29:58;;;;;;;;;;;;;;;33.34;19.29;101686.53;5135100;27;19923;-76
2021/08/06 11:32:25;;;;;;;;;;;;;;;33.35;19.00;101683.63;5134920;27;19923;-76
2021/08/06 11:34:52;;;;;;;;;;;;;;;33.17;20.07;101673.53;5134838;27;19927;-75
2021/08/06 11:37:20;;;;;;;;;;;;;;;36.01;19.81;101680.41;5134744;27;20300;-76
2021/08/06 11:40:16;;;;;;;;;;;;;;;31.06;22.15;101662.19;5134961;27;19923;-76
2021/08/06 11:42:44;;;;;;;;;;;;;;;34.58;18.49;101673.56;5051326;28;19924;-76
2021/08/06 11:45:13;;;;;;;;;;;;;;;33.91;18.98;101673.19;5114912;27;20369;-76
2021/08/06 11:47:41;;;;;;;;;;;;;;;33.52;19.34;101675.88;5134890;27;19923;-76
2021/08/06 11:50:08;;;;;;;;;;;;;;;34.28;18.42;101671.53;5134623;27;19923;-77
2021/08/06 11:52:45;;;;;;;;;;;;;;;35.75;16.87;101668.94;5134715;27;19930;-78
2021/08/06 11:55:13;;;;;;;;;;;;;;;31.62;20.34;101661.19;5133479;27;19943;-78
2021/08/06 11:57:45;;;;;;;;;;;;;;;34.54;18.65;101670.47;5134468;27;19923;-78
2021/08/06 12:00:15;;;;;;;;;;;;;;;34.90;17.69;101671.59;5134437;27;19973;-78
2021/08/06 12:02:41;;;;;;;;;;;;;;;35.84;16.27;101671.31;5134262;27;20309;-78
2021/08/06 12:05:20;;;;;;;;;;;;;;;35.69;16.24;101667.16;5133907;27;19924;-78
2021/08/06 12:07:47;;;;;;;;;;;;;;;34.80;18.16;101661.31;5134439;27;19923;-77
2021/08/06 12:10:13;;;;;;;;;;;;;;;31.61;22.69;101664.94;5134201;27;19945;-78
2021/08/06 12:12:40;;;;;;;;;;;;;;;33.71;19.22;101660.69;5134403;27;19924;-78
2021/08/06 12:15:19;;;;;;;;;;;;;;;33.48;19.45;101655.78;5133868;27;19923;-78
2021/08/06 12:17:46;;;;;;;;;;;;;;;33.46;20.84;101667.81;5134422;27;19946;-78
2021/08/06 12:20:13;;;;;;;;;;;;;;;33.22;21.76;101670.22;5133741;27;19923;-77
2021/08/06 12:22:41;;;;;;;;;;;;;;;30.93;23.31;101662.06;5133800;27;19923;-77
2021/08/06 12:25:11;;;;;;;;;;;;;;;30.17;23.64;101676.09;5133679;27;19923;-77
2021/08/06 12:27:38;;;;;;;;;;;;;;;32.81;20.64;101665.06;5133986;27;19924;-78
2021/08/06 12:30:19;;;;;;;;;;;;;;;32.51;21.96;101666.34;5133447;27;20407;-77
2021/08/06 12:32:47;;;;;;;;;;;;;;;32.49;24.25;101664.91;5133601;27;19930;-78
2021/08/06 12:35:18;;;;;;;;;;;;;;;31.73;23.10;101666.00;5133509;27;19923;-78
2021/08/06 12:37:45;;;;;;;;;;;;;;;30.65;25.95;101662.91;5133776;27;20312;-77
2021/08/06 12:40:12;;;;;;;;;;;;;;;33.79;20.84;101667.69;5134012;27;19931;-77
2021/08/06 12:42:39;;;;;;;;;;;;;;;29.87;23.72;101664.63;5133637;27;19930;-78